Time;durP1;ratioP1;P1;durP2;ratioP2;P2;SDS_P1;SDS_P2;PMS_P1;PMS_P2;Temp;Humidity;BMP_temperature;BMP_pressure;BME280_temperature;BME280_humidity;BME280_pressure;Samples;Min_cycle;Max_cycle;Signal;HPM_P1;HPM_P2
2021/09/25 00:00:34;;;;;;;;;18.25;17.25;;;;;18.78;59.29;100935.88;5078185;28;48064;-85
2021/09/25 00:03:03;;;;;;;;;22.75;21.00;;;;;18.86;59.44;100943.91;5082257;27;45660;-86
2021/09/25 00:05:34;;;;;;;;;16.00;15.75;;;;;18.71;59.60;100933.00;5082300;27;45756;-82
2021/09/25 00:08:01;;;;;;;;;18.25;17.00;;;;;18.79;59.17;100940.19;5086204;27;46676;-81
2021/09/25 00:10:28;;;;;;;;;19.25;17.00;;;;;18.80;59.77;100939.19;5086832;27;45542;-83
2021/09/25 00:12:53;;;;;;;;;19.50;19.00;;;;;18.89;59.52;100942.75;5081614;27;45598;-83
2021/09/25 00:15:20;;;;;;;;;24.25;20.00;;;;;18.90;59.47;100939.94;5079115;27;45709;-85
2021/09/25 00:21:07;;;;;;;;;12.00;9.50;;;;;18.90;59.68;100939.94;5080056;28;46006;-77
2021/09/25 00:23:33;;;;;;;;;23.75;18.75;;;;;18.89;59.61;100935.63;5083970;27;45544;-78
2021/09/25 00:25:59;;;;;;;;;17.25;17.25;;;;;18.92;59.41;100939.78;5085361;28;45594;-81
2021/09/25 00:28:24;;;;;;;;;18.75;18.00;;;;;18.77;59.43;100911.16;5084072;28;48672;-82
2021/09/25 00:30:49;;;;;;;;;20.00;17.50;;;;;18.76;59.35;100912.13;5081276;28;45365;-84
2021/09/25 00:33:15;;;;;;;;;24.25;22.25;;;;;18.91;59.82;100935.47;5081640;27;45518;-80
2021/09/25 00:35:40;;;;;;;;;18.25;17.50;;;;;18.92;59.41;100935.31;5082093;27;45585;-87
2021/09/25 00:38:05;;;;;;;;;17.00;17.00;;;;;18.92;59.16;100942.44;5083772;28;45499;-88
2021/09/25 00:40:31;;;;;;;;;19.75;18.25;;;;;18.92;59.54;100940.63;5083998;27;46095;-88
2021/09/25 00:42:56;;;;;;;;;17.50;16.50;;;;;18.90;59.68;100939.09;5079984;27;45591;-88
2021/09/25 00:45:23;;;;;;;;;19.50;17.25;;;;;18.82;59.84;100924.78;5080864;27;45838;-87
2021/09/25 00:51:10;;;;;;;;;18.75;17.75;;;;;18.89;59.77;100935.63;5080211;28;46136;-86
2021/09/25 00:53:35;;;;;;;;;21.25;20.25;;;;;18.90;59.71;100942.59;5078834;27;45826;-89
2021/09/25 00:56:02;;;;;;;;;21.75;20.50;;;;;18.89;59.59;100937.47;5079707;27;45540;-90
2021/09/25 00:58:29;;;;;;;;;18.75;18.00;;;;;18.73;59.66;100924.88;5079298;27;47516;-89
2021/09/25 01:00:54;;;;;;;;;22.50;19.25;;;;;18.87;59.77;100950.88;5079356;27;46276;-90
2021/09/25 01:03:20;;;;;;;;;19.50;16.25;;;;;18.81;59.87;100930.25;5079105;27;45578;-87
2021/09/25 01:05:45;;;;;;;;;17.25;16.50;;;;;18.85;59.89;100947.53;5079281;27;45822;-89
2021/09/25 01:08:12;;;;;;;;;18.75;18.50;;;;;18.86;59.93;100944.72;5078691;27;46455;-86
2021/09/25 01:10:39;;;;;;;;;21.50;19.50;;;;;18.85;60.07;100943.06;5079399;27;45635;-87
2021/09/25 01:13:05;;;;;;;;;19.25;17.25;;;;;18.86;59.93;100943.91;5079232;27;45760;-86
2021/09/25 01:15:30;;;;;;;;;19.25;18.50;;;;;18.84;60.04;100933.41;5077822;28;45502;-90
2021/09/25 01:21:18;;;;;;;;;19.50;17.75;;;;;18.79;59.82;100925.09;5086277;28;46022;-88
2021/09/25 01:23:43;;;;;;;;;20.50;17.50;;;;;18.82;60.23;100926.63;5089842;28;45628;-85
2021/09/25 01:26:10;;;;;;;;;17.00;17.00;;;;;18.77;60.24;100918.28;5080254;27;45621;-88
2021/09/25 01:28:37;;;;;;;;;18.00;17.00;;;;;18.81;59.96;100920.47;5079633;27;46553;-88
2021/09/25 01:31:05;;;;;;;;;18.75;18.00;;;;;18.81;59.99;100920.47;5079392;27;45989;-90
2021/09/25 01:33:38;;;;;;;;;19.00;16.00;;;;;18.80;60.08;100918.78;5080112;27;45758;-89
2021/09/25 01:36:05;;;;;;;;;20.75;20.00;;;;;18.71;59.90;100909.13;5084271;27;45790;-82
2021/09/25 01:38:31;;;;;;;;;19.00;17.25;;;;;18.77;60.01;100919.13;5079966;27;45686;-80
2021/09/25 01:40:57;;;;;;;;;16.75;16.75;;;;;18.70;60.23;100903.94;5080657;27;45852;-82
2021/09/25 01:43:23;;;;;;;;;19.00;18.50;;;;;18.74;59.81;100914.09;5080822;27;45868;-79
2021/09/25 01:45:48;;;;;;;;;22.75;21.25;;;;;18.72;60.07;100907.28;5083548;27;45552;-81
2021/09/25 01:51:36;;;;;;;;;18.25;17.50;;;;;18.69;60.06;100902.28;5084399;28;45712;-79
2021/09/25 01:54:04;;;;;;;;;19.00;18.00;;;;;18.56;60.27;100886.75;5083096;27;45721;-82
2021/09/25 01:56:29;;;;;;;;;18.00;17.25;;;;;18.66;60.36;100898.13;5082596;27;45589;-79
2021/09/25 01:58:55;;;;;;;;;20.50;18.00;;;;;18.69;60.29;100902.28;5083064;27;46455;-84
2021/09/25 02:01:20;;;;;;;;;17.75;16.00;;;;;18.53;60.31;100880.88;5078754;27;45946;-82
2021/09/25 02:03:46;;;;;;;;;18.25;18.25;;;;;18.67;60.16;100899.78;5078304;27;46084;-78
2021/09/25 02:06:12;;;;;;;;;22.00;19.75;;;;;18.61;60.54;100881.81;5078008;28;45543;-77
2021/09/25 02:08:40;;;;;;;;;20.50;19.50;;;;;18.66;60.58;100886.66;5077446;27;45495;-83
2021/09/25 02:11:06;;;;;;;;;23.25;21.25;;;;;18.59;60.46;100873.19;5078041;28;46140;-81
2021/09/25 02:13:32;;;;;;;;;21.25;20.00;;;;;18.57;60.43;100877.78;5077603;27;45676;-82
2021/09/25 02:15:58;;;;;;;;;19.50;18.50;;;;;18.65;60.54;100885.00;5079321;27;45580;-79
2021/09/25 02:21:45;;;;;;;;;19.75;19.00;;;;;18.61;60.79;100886.31;5078756;28;45723;-86
2021/09/25 02:24:12;;;;;;;;;19.75;18.75;;;;;18.59;60.39;100886.44;5078262;27;45672;-90
2021/09/25 02:26:38;;;;;;;;;21.50;19.25;;;;;18.58;60.95;100886.59;5077497;27;45696;-82
2021/09/25 02:29:03;;;;;;;;;22.00;20.25;;;;;18.57;60.75;100883.09;5077077;27;45732;-84
2021/09/25 02:31:29;;;;;;;;;20.75;19.25;;;;;18.56;60.82;100888.59;5078299;27;45659;-82
2021/09/25 02:33:54;;;;;;;;;20.75;19.25;;;;;18.45;60.79;100873.69;5080594;27;46226;-78
2021/09/25 02:36:19;;;;;;;;;22.00;19.75;;;;;18.49;61.00;100874.22;5080889;27;45629;-80
2021/09/25 02:38:45;;;;;;;;;22.25;19.50;;;;;18.53;61.10;100878.22;5080517;27;46485;-77
2021/09/25 02:41:10;;;;;;;;;19.00;18.75;;;;;18.52;61.04;100882.69;5080487;27;45420;-83
2021/09/25 02:43:35;;;;;;;;;22.75;21.25;;;;;18.45;61.23;100879.00;5080183;27;45514;-83
2021/09/25 02:46:01;;;;;;;;;23.25;19.25;;;;;18.49;60.74;100877.72;5080507;27;45674;-82
2021/09/25 02:51:49;;;;;;;;;23.50;21.75;;;;;18.45;60.97;100874.53;5078704;28;46264;-77
2021/09/25 02:54:14;;;;;;;;;20.50;20.00;;;;;18.40;60.79;100863.56;5077627;28;45664;-80
2021/09/25 02:56:40;;;;;;;;;21.00;20.75;;;;;18.41;61.11;100865.19;5078033;28;45534;-83
2021/09/25 02:59:06;;;;;;;;;25.00;22.00;;;;;18.37;61.41;100869.16;5076599;27;46564;-81
2021/09/25 03:01:32;;;;;;;;;20.00;19.00;;;;;18.40;61.24;100868.03;5077155;27;46053;-79
2021/09/25 03:03:58;;;;;;;;;21.50;20.00;;;;;18.30;61.10;100846.84;5076578;27;45474;-84
2021/09/25 03:06:26;;;;;;;;;23.25;22.00;;;;;18.29;61.48;100844.38;5076689;27;45531;-81
2021/09/25 03:08:52;;;;;;;;;24.25;21.75;;;;;18.33;61.00;100859.84;5075990;27;45632;-78
2021/09/25 03:11:17;;;;;;;;;21.00;20.00;;;;;18.38;61.65;100859.38;5074862;28;48286;-85
2021/09/25 03:13:43;;;;;;;;;20.25;19.25;;;;;18.36;61.24;100864.81;5076762;27;45630;-87
2021/09/25 03:16:09;;;;;;;;;21.75;21.00;;;;;18.34;61.54;100864.16;5077045;27;45660;-83
2021/09/25 03:21:55;;;;;;;;;22.00;21.50;;;;;18.31;61.78;100864.44;5074277;28;46124;-81
2021/09/25 03:24:21;;;;;;;;;19.00;18.00;;;;;18.29;61.30;100863.78;5076888;27;45768;-81
2021/09/25 03:26:46;;;;;;;;;22.00;21.00;;;;;18.23;61.65;100855.59;5076884;27;45632;-84
2021/09/25 03:29:12;;;;;;;;;23.75;22.75;;;;;18.20;61.40;100854.06;5076766;27;45814;-85
2021/09/25 03:31:37;;;;;;;;;25.25;22.00;;;;;18.22;61.41;100853.94;5076809;28;47112;-88
2021/09/25 03:34:02;;;;;;;;;23.50;22.50;;;;;18.23;61.39;100867.03;5076273;28;45795;-90
2021/09/25 03:36:28;;;;;;;;;22.75;22.50;;;;;18.22;61.76;100865.38;5080108;27;45697;-88
2021/09/25 03:38:53;;;;;;;;;24.75;23.00;;;;;18.21;62.02;100853.09;5080854;27;46363;-84
2021/09/25 03:41:19;;;;;;;;;26.25;25.00;;;;;18.15;61.62;100851.03;5080692;27;45984;-81
2021/09/25 03:43:49;;;;;;;;;22.75;21.75;;;;;18.20;61.35;100855.88;5080867;27;45591;-79
2021/09/25 03:46:16;;;;;;;;;28.75;26.50;;;;;17.98;62.16;100814.75;5081317;27;45608;-86
2021/09/25 03:52:04;;;;;;;;;29.00;26.50;;;;;18.14;62.16;100846.72;5081955;28;46145;-83
2021/09/25 03:54:29;;;;;;;;;30.25;28.25;;;;;18.17;61.68;100845.59;5081170;28;45589;-84
2021/09/25 03:56:55;;;;;;;;;29.00;27.25;;;;;18.18;62.12;100848.09;5083149;27;44996;-84
2021/09/25 03:59:20;;;;;;;;;30.75;29.50;;;;;18.11;61.75;100833.78;5082097;27;45695;-80
2021/09/25 04:01:46;;;;;;;;;35.00;30.75;;;;;18.18;61.91;100847.28;5080368;28;46361;-83
2021/09/25 04:04:11;;;;;;;;;32.25;29.25;;;;;18.16;62.18;100849.22;5077914;27;45568;-79
2021/09/25 04:06:38;;;;;;;;;28.50;27.25;;;;;18.13;61.51;100853.03;5083637;27;45822;-84
2021/09/25 04:09:06;;;;;;;;;27.25;25.25;;;;;18.15;62.08;100856.34;5083947;27;46285;-77
2021/09/25 04:11:31;;;;;;;;;29.75;27.75;;;;;18.12;61.71;100851.34;5082750;27;47028;-81
2021/09/25 04:13:57;;;;;;;;;35.25;32.00;;;;;18.07;62.02;100848.34;5081401;27;45569;-79
2021/09/25 04:16:24;;;;;;;;;31.25;29.50;;;;;18.09;61.89;100849.00;5081313;27;45455;-79
2021/09/25 04:22:11;;;;;;;;;35.75;31.75;;;;;18.01;62.13;100833.84;5074620;28;45853;-87
2021/09/25 04:24:37;;;;;;;;;37.50;32.00;;;;;18.10;61.74;100841.88;5078069;27;45658;-82
2021/09/25 04:27:03;;;;;;;;;31.00;28.75;;;;;18.09;62.02;100842.84;5079442;27;45462;-86
2021/09/25 04:29:28;;;;;;;;;33.50;29.75;;;;;18.10;62.33;100841.88;5080269;28;45893;-76
2021/09/25 04:31:53;;;;;;;;;36.00;31.50;;;;;17.99;62.33;100830.50;5081609;27;45664;-77
2021/09/25 04:34:19;;;;;;;;;34.75;30.25;;;;;18.06;62.41;100843.16;5082697;27;45450;-81
2021/09/25 04:36:44;;;;;;;;;29.00;27.50;;;;;17.90;62.26;100815.53;5089013;27;45519;-80
2021/09/25 04:39:10;;;;;;;;;32.50;29.50;;;;;17.81;62.27;100794.41;5087097;27;46839;-78
2021/09/25 04:41:35;;;;;;;;;31.75;29.75;;;;;18.07;62.42;100842.19;5087602;27;45932;-78
2021/09/25 04:44:00;;;;;;;;;28.00;27.50;;;;;18.06;62.05;100843.16;5088314;27;45580;-80
2021/09/25 04:46:26;;;;;;;;;34.00;29.00;;;;;18.00;62.03;100834.00;5086000;27;45537;-79
2021/09/25 04:52:13;;;;;;;;;34.25;29.25;;;;;18.04;61.94;100835.34;5077944;28;45771;-88
2021/09/25 04:54:38;;;;;;;;;31.00;27.25;;;;;18.00;62.32;100834.84;5078729;28;45464;-80
2021/09/25 04:57:04;;;;;;;;;34.50;31.25;;;;;17.98;62.05;100834.13;5079191;27;45512;-82
2021/09/25 04:59:29;;;;;;;;;32.00;30.00;;;;;18.00;62.49;100834.00;5079532;27;47192;-80
2021/09/25 05:01:55;;;;;;;;;39.50;29.50;;;;;17.99;62.09;100834.97;5079991;27;46540;-84
2021/09/25 05:04:20;;;;;;;;;37.25;31.25;;;;;17.93;62.40;100833.75;5080259;27;46250;-83
2021/09/25 05:06:46;;;;;;;;;27.25;26.50;;;;;17.87;62.35;100822.91;5081882;27;45585;-81
2021/09/25 05:09:11;;;;;;;;;33.50;29.00;;;;;17.95;62.19;100842.41;5083500;27;45620;-79
2021/09/25 05:11:36;;;;;;;;;28.50;26.75;;;;;17.85;62.10;100825.75;5083023;27;45647;-84
2021/09/25 05:14:02;;;;;;;;;45.50;37.50;;;;;17.95;62.50;100844.22;5081318;27;45716;-83
2021/09/25 05:16:28;;;;;;;;;48.75;39.25;;;;;17.93;62.30;100839.06;5079409;27;45612;-82
2021/09/25 05:22:15;;;;;;;;;28.50;23.25;;;;;17.85;62.53;100830.22;5077418;28;45543;-81
2021/09/25 05:24:41;;;;;;;;;28.25;26.50;;;;;17.75;62.14;100819.69;5078176;27;45633;-86
2021/09/25 05:27:06;;;;;;;;;25.75;24.50;;;;;17.82;62.37;100835.78;5078995;27;45554;-79
2021/09/25 05:29:34;;;;;;;;;26.50;22.50;;;;;17.79;62.19;100830.81;5079396;27;46545;-83
2021/09/25 05:32:01;;;;;;;;;23.00;22.50;;;;;17.67;62.51;100810.78;5081376;28;45732;-80
2021/09/25 05:34:28;;;;;;;;;27.50;25.50;;;;;17.75;62.19;100824.16;5099946;27;45823;-80
2021/09/25 05:36:55;;;;;;;;;23.50;22.00;;;;;17.73;62.46;100826.94;5079454;28;45545;-81
2021/09/25 05:39:20;;;;;;;;;24.25;22.50;;;;;17.71;62.71;100830.72;5083131;27;47365;-81
2021/09/25 05:41:46;;;;;;;;;24.00;23.50;;;;;17.69;62.17;100828.22;5085420;27;45699;-80
2021/09/25 05:44:13;;;;;;;;;22.75;20.75;;;;;17.59;62.60;100816.81;5079600;28;45614;-79
2021/09/25 05:46:38;;;;;;;;;24.75;23.00;;;;;17.61;62.67;100826.31;5087766;27;45826;-86
2021/09/25 05:52:25;;;;;;;;;23.00;20.00;;;;;17.59;62.19;100827.44;5084551;28;46272;-78
2021/09/25 05:54:51;;;;;;;;;25.25;23.00;;;;;17.59;62.25;100827.44;5075682;27;45882;-79
2021/09/25 05:57:16;;;;;;;;;27.25;23.75;;;;;17.43;62.31;100803.41;5077278;27;45561;-79
2021/09/25 05:59:42;;;;;;;;;21.75;21.00;;;;;17.49;62.35;100822.16;5093960;27;46582;-79
2021/09/25 06:02:08;;;;;;;;;24.50;22.50;;;;;17.49;62.79;100830.09;5080742;27;46086;-78
2021/09/25 06:04:36;;;;;;;;;22.00;21.00;;;;;17.58;62.59;100839.00;5077869;27;45580;-77
2021/09/25 06:07:01;;;;;;;;;24.75;23.25;;;;;17.55;62.35;100832.16;5075137;27;45659;-77
2021/09/25 06:09:27;;;;;;;;;29.00;26.25;;;;;17.57;62.41;100838.16;5075590;27;46211;-79
2021/09/25 06:11:52;;;;;;;;;24.50;22.50;;;;;17.56;62.42;100846.25;5075538;27;46432;-80
2021/09/25 06:14:19;;;;;;;;;24.50;23.25;;;;;17.54;62.43;100843.75;5075372;27;46011;-77
2021/09/25 06:16:44;;;;;;;;;26.50;24.75;;;;;17.44;62.32;100834.19;5075422;28;45599;-78
2021/09/25 06:22:31;;;;;;;;;22.00;21.00;;;;;17.45;62.48;100838.50;5071626;28;46015;-79
2021/09/25 06:24:56;;;;;;;;;29.50;24.25;;;;;17.53;62.89;100847.41;5073425;28;45976;-80
2021/09/25 06:27:22;;;;;;;;;22.50;22.00;;;;;17.47;62.47;100842.69;5075282;27;45518;-78
2021/09/25 06:29:47;;;;;;;;;26.50;25.75;;;;;17.54;62.78;100851.69;5075523;27;46160;-78
2021/09/25 06:32:13;;;;;;;;;27.00;24.50;;;;;17.54;62.64;100845.59;5075272;27;46412;-77
2021/09/25 06:38:00;;;;;;;;;26.50;24.25;;;;;17.54;62.93;100851.69;5074969;28;45654;-78
2021/09/25 06:40:25;;;;;;;;;46.75;36.75;;;;;17.54;63.04;100845.59;5074879;27;45563;-78
2021/09/25 06:42:51;;;;;;;;;28.50;27.50;;;;;17.56;62.98;100848.91;5074745;27;46430;-77
2021/09/25 06:45:16;;;;;;;;;30.50;28.25;;;;;17.52;62.90;100840.44;5074687;27;45428;-77
2021/09/25 06:47:42;;;;;;;;;28.50;27.25;;;;;17.58;62.81;100841.66;5074912;27;45874;-77
2021/09/25 06:50:08;;;;;;;;;25.50;23.50;;;;;17.58;62.56;100842.50;5074620;27;46689;-78
2021/09/25 06:52:33;;;;;;;;;29.00;27.50;;;;;17.57;62.57;100834.69;5074065;27;46582;-77
2021/09/25 06:55:00;;;;;;;;;26.50;24.50;;;;;17.57;62.69;100827.56;5074455;27;45577;-76
2021/09/25 06:57:26;;;;;;;;;29.50;28.00;;;;;17.59;62.62;100822.13;5074831;27;45541;-79
2021/09/25 06:59:52;;;;;;;;;30.00;29.25;;;;;17.57;62.56;100821.44;5074615;27;45551;-80
2021/09/25 07:02:17;;;;;;;;;28.00;26.75;;;;;17.55;62.98;100813.63;5074015;27;46428;-78
2021/09/25 07:08:04;;;;;;;;;32.00;29.50;;;;;17.54;62.71;100814.59;5074203;28;45630;-79
2021/09/25 07:10:30;;;;;;;;;33.00;30.00;;;;;17.57;63.12;100814.31;5074533;28;45498;-78
2021/09/25 07:12:55;;;;;;;;;31.75;30.00;;;;;17.52;62.69;100798.03;5073994;27;46303;-78
2021/09/25 07:15:21;;;;;;;;;35.50;32.00;;;;;17.55;62.85;100813.63;5074193;28;45660;-78
2021/09/25 07:17:46;;;;;;;;;34.00;30.00;;;;;17.50;63.13;100805.28;5074491;27;45522;-78
2021/09/25 07:20:12;;;;;;;;;37.50;33.00;;;;;17.39;62.60;100788.75;5074453;27;46185;-78
2021/09/25 07:22:38;;;;;;;;;31.50;29.50;;;;;17.58;62.82;100823.94;5074071;27;45724;-79
2021/09/25 07:25:03;;;;;;;;;30.25;29.00;;;;;17.45;63.17;100798.75;5074628;27;45865;-80
2021/09/25 07:27:29;;;;;;;;;35.25;30.00;;;;;17.61;63.15;100818.38;5074365;27;45622;-79
2021/09/25 07:29:54;;;;;;;;;35.50;31.25;;;;;17.63;62.71;100820.88;5074018;27;45621;-78
2021/09/25 07:32:20;;;;;;;;;32.25;28.75;;;;;17.65;62.83;100826.88;5073791;27;45682;-80
2021/09/25 07:38:07;;;;;;;;;36.50;32.25;;;;;17.72;62.71;100811.19;5074021;28;45745;-78
2021/09/25 07:40:33;;;;;;;;;39.50;33.75;;;;;17.76;62.81;100816.03;5073772;27;47670;-79
2021/09/25 07:42:59;;;;;;;;;42.50;34.50;;;;;17.79;63.08;100806.94;5073407;27;46620;-78
2021/09/25 07:45:26;;;;;;;;;42.50;35.00;;;;;17.80;63.08;100812.13;5073835;27;45573;-78
2021/09/25 07:47:53;;;;;;;;;44.25;37.75;;;;;17.82;63.22;100806.63;5089587;27;45981;-77
2021/09/25 07:50:19;;;;;;;;;44.50;35.75;;;;;17.83;62.74;100795.06;5073549;27;46229;-79
2021/09/25 07:52:45;;;;;;;;;48.50;39.75;;;;;17.90;63.05;100799.63;5073462;28;46340;-77
2021/09/25 07:55:12;;;;;;;;;46.50;38.00;;;;;17.91;62.71;100797.81;5074353;27;45919;-77
2021/09/25 07:57:39;;;;;;;;;46.25;36.00;;;;;17.95;62.65;100807.94;5076942;27;45654;-78
2021/09/25 08:00:07;;;;;;;;;42.75;36.00;;;;;17.98;63.28;100799.69;5077247;27;46820;-78
2021/09/25 08:02:34;;;;;;;;;51.50;40.75;;;;;18.02;62.52;100808.19;5076226;27;46410;-78
2021/09/25 08:05:01;;;;;;;;;49.00;39.00;;;;;18.01;62.57;100803.84;5076927;27;45999;-77
2021/09/25 08:07:26;;;;;;;;;43.75;36.50;;;;;18.01;62.68;100806.50;5075507;27;45580;-78
2021/09/25 08:09:52;;;;;;;;;45.50;37.75;;;;;17.96;62.78;100798.19;5073169;27;46517;-78
2021/09/25 08:12:17;;;;;;;;;48.00;39.00;;;;;18.06;62.83;100806.03;5072954;27;45985;-78
2021/09/25 08:14:43;;;;;;;;;43.50;35.25;;;;;18.04;62.71;100798.22;5073481;27;45733;-79
2021/09/25 08:17:08;;;;;;;;;44.50;37.25;;;;;18.10;62.58;100791.50;5074360;27;45515;-77
2021/09/25 08:22:55;;;;;;;;;41.50;35.00;;;;;18.13;62.79;100797.34;5070578;28;45740;-76
2021/09/25 08:25:21;;;;;;;;;37.00;32.75;;;;;18.12;62.69;100785.06;5075346;27;45846;-77
2021/09/25 08:27:47;;;;;;;;;39.25;35.00;;;;;18.20;62.93;100801.03;5075277;27;45776;-78
2021/09/25 08:30:13;;;;;;;;;45.00;37.50;;;;;18.26;63.04;100795.09;5077539;28;46343;-78
2021/09/25 08:32:39;;;;;;;;;43.25;35.50;;;;;18.21;62.70;100789.44;5076665;27;46066;-77
2021/09/25 08:38:25;;;;;;;;;41.50;35.00;;;;;18.39;62.75;100798.22;5077036;28;45876;-76
2021/09/25 08:40:51;;;;;;;;;42.25;35.25;;;;;18.40;62.50;100794.56;5076733;27;45596;-77
2021/09/25 08:43:18;;;;;;;;;41.75;34.75;;;;;18.45;62.25;100794.94;5076579;27;45763;-77
2021/09/25 08:45:43;;;;;;;;;43.25;36.25;;;;;18.38;62.81;100783.28;5076564;27;45641;-77
2021/09/25 08:48:10;;;;;;;;;42.75;35.25;;;;;18.48;62.25;100785.81;5076757;28;45689;-76
2021/09/25 08:50:35;;;;;;;;;41.75;35.75;;;;;18.46;62.13;100785.97;5076698;27;45582;-76
2021/09/25 08:53:01;;;;;;;;;44.00;35.00;;;;;18.52;62.20;100794.28;5076505;27;46083;-75
2021/09/25 08:55:26;;;;;;;;;41.00;33.50;;;;;18.54;62.34;100793.19;5076156;27;45536;-77
2021/09/25 08:57:52;;;;;;;;;41.25;34.25;;;;;18.45;62.18;100768.41;5076513;27;45523;-76
2021/09/25 09:00:38;;;;;;;;;39.75;33.50;;;;;18.61;62.27;100791.59;5076345;27;45546;-77
2021/09/25 09:03:27;;;;;;;;;35.50;31.50;;;;;18.66;62.52;100789.28;5075974;28;45979;-77
2021/09/25 09:06:01;;;;;;;;;37.00;32.50;;;;;18.71;62.18;100796.78;5075743;28;45554;-77
2021/09/25 09:08:27;;;;;;;;;34.50;31.75;;;;;18.77;61.80;100793.50;5076107;27;46938;-77
2021/09/25 09:10:54;;;;;;;;;34.75;31.25;;;;;18.83;62.13;100799.03;5076048;28;45597;-78
2021/09/25 09:13:20;;;;;;;;;33.50;32.25;;;;;18.89;62.03;100802.03;5075942;27;46672;-77
2021/09/25 09:15:49;;;;;;;;;33.00;30.00;;;;;18.92;62.16;100794.59;5076195;27;45703;-77
2021/09/25 09:18:20;;;;;;;;;30.00;27.50;;;;;19.01;61.80;100798.94;5076474;27;45776;-76
2021/09/25 09:21:12;;;;;;;;;32.25;28.75;;;;;19.07;61.40;100800.97;5075918;27;46337;-76
2021/09/25 09:23:44;;;;;;;;;31.25;29.00;;;;;19.13;61.41;100810.94;5075464;28;46380;-78
2021/09/25 09:26:13;;;;;;;;;28.25;26.75;;;;;19.04;61.67;100784.50;5075717;27;45791;-78
2021/09/25 09:28:39;;;;;;;;;32.75;30.75;;;;;19.23;61.48;100805.50;5075965;27;45662;-77
2021/09/25 09:31:07;;;;;;;;;32.75;27.25;;;;;19.23;61.19;100793.06;5075849;27;46552;-78
2021/09/25 09:33:36;;;;;;;;;25.75;25.50;;;;;19.31;61.26;100794.94;5075572;27;46160;-77
2021/09/25 09:36:14;;;;;;;;;28.00;26.00;;;;;19.34;61.26;100791.94;5075752;27;45591;-77
2021/09/25 09:38:51;;;;;;;;;31.25;30.25;;;;;19.38;61.35;100784.50;5076278;28;45689;-77
2021/09/25 09:41:19;;;;;;;;;29.00;27.00;;;;;19.41;61.06;100786.81;5074136;27;47552;-78
2021/09/25 09:43:44;;;;;;;;;27.25;25.50;;;;;19.44;60.71;100784.66;5074003;28;46530;-77
2021/09/25 09:46:10;;;;;;;;;27.25;26.25;;;;;19.48;60.73;100790.53;5075375;27;45463;-77
2021/09/25 09:48:35;;;;;;;;;31.00;28.75;;;;;19.44;61.06;100763.38;5075966;27;45554;-77
2021/09/25 09:51:01;;;;;;;;;32.25;29.25;;;;;19.54;60.81;100772.06;5075688;27;45615;-78
2021/09/25 09:53:30;;;;;;;;;31.00;29.25;;;;;19.51;60.88;100753.81;5076455;27;46151;-78
2021/09/25 09:56:24;;;;;;;;;28.00;27.75;;;;;19.60;60.63;100763.47;5076420;27;45810;-76
2021/09/25 09:59:16;;;;;;;;;26.00;25.75;;;;;19.62;60.55;100772.13;5076376;27;45608;-77
2021/09/25 10:01:43;;;;;;;;;32.50;29.75;;;;;19.65;60.61;100765.63;5076940;27;46787;-76
2021/09/25 10:04:09;;;;;;;;;23.00;22.25;;;;;19.70;60.60;100773.97;5082061;27;45576;-76
2021/09/25 10:06:38;;;;;;;;;26.00;25.00;;;;;19.68;60.70;100770.63;5082252;27;45687;-76
2021/09/25 10:09:15;;;;;;;;;28.50;26.25;;;;;19.78;60.47;100779.28;5081146;27;45527;-77
2021/09/25 10:11:43;;;;;;;;;25.25;23.50;;;;;19.80;60.24;100771.97;5077247;27;45739;-77
2021/09/25 10:14:13;;;;;;;;;25.50;22.75;;;;;19.85;59.96;100768.81;5077641;27;45860;-77
2021/09/25 10:16:40;;;;;;;;;26.75;25.25;;;;;19.84;60.36;100769.81;5077655;27;45726;-77
2021/09/25 10:19:05;;;;;;;;;26.25;22.75;;;;;19.77;60.03;100751.03;5078421;27;45741;-77
2021/09/25 10:21:35;;;;;;;;;24.00;20.75;;;;;19.94;59.87;100776.63;5078813;27;46511;-75
2021/09/25 10:24:24;;;;;;;;;24.00;24.00;;;;;19.97;60.09;100770.97;5078552;28;46549;-78
2021/09/25 10:26:51;;;;;;;;;24.75;23.50;;;;;20.03;60.05;100766.81;5074648;28;45627;-77
2021/09/25 10:29:23;;;;;;;;;20.75;18.75;;;;;20.08;60.03;100778.63;5074927;27;45793;-77
2021/09/25 10:31:49;;;;;;;;;23.75;22.75;;;;;20.13;60.00;100772.84;5074944;27;46829;-80
2021/09/25 10:34:27;;;;;;;;;24.50;23.00;;;;;20.17;59.92;100770.66;5074545;27;46129;-77
2021/09/25 10:36:55;;;;;;;;;22.00;20.50;;;;;20.15;59.77;100765.50;5074932;27;45727;-77
2021/09/25 10:39:40;;;;;;;;;24.00;23.00;;;;;20.21;59.82;100772.81;5074995;27;45576;-77
2021/09/25 10:42:11;;;;;;;;;24.00;23.00;;;;;20.29;59.61;100770.16;5079902;27;46012;-77
2021/09/25 10:44:41;;;;;;;;;24.25;22.00;;;;;20.33;59.47;100771.50;5079497;27;46030;-75
2021/09/25 10:47:19;;;;;;;;;25.50;23.00;;;;;20.32;59.25;100755.72;5081871;27;45538;-78
2021/09/25 10:49:55;;;;;;;;;21.50;20.25;;;;;20.40;59.42;100756.53;5081723;27;45437;-76
2021/09/25 10:52:40;;;;;;;;;23.25;20.25;;;;;20.46;59.25;100750.50;5076375;27;45778;-75
2021/09/25 10:55:19;;;;;;;;;23.00;23.00;;;;;20.48;59.23;100743.22;5090427;27;47263;-76
2021/09/25 10:58:15;;;;;;;;;26.50;18.25;;;;;20.52;58.97;100741.03;5074717;27;45771;-76
2021/09/25 11:00:54;;;;;;;;;22.75;20.00;;;;;20.53;59.27;100732.03;5074486;28;45543;-78
2021/09/25 11:06:52;;;;;;;;;18.00;15.75;;;;;20.69;58.64;100734.66;5073732;28;46115;-77
2021/09/25 11:09:39;;;;;;;;;17.25;16.25;;;;;20.76;58.71;100735.66;5074249;27;45818;-78
2021/09/25 11:12:06;;;;;;;;;22.50;18.50;;;;;20.81;58.63;100725.31;5074707;27;45600;-78
2021/09/25 11:14:40;;;;;;;;;20.75;18.25;;;;;20.85;58.46;100717.78;5073653;27;47357;-77
2021/09/25 11:17:11;;;;;;;;;21.75;18.75;;;;;20.87;58.50;100718.47;5074391;28;45482;-78
2021/09/25 11:22:59;;;;;;;;;18.50;17.75;;;;;20.96;58.18;100701.41;5074007;28;45728;-78
2021/09/25 11:25:28;;;;;;;;;18.00;17.25;;;;;20.99;58.33;100697.59;5074156;28;45975;-76
2021/09/25 11:27:54;;;;;;;;;18.25;17.50;;;;;21.02;58.17;100689.25;5072337;28;46176;-78
2021/09/25 11:30:21;;;;;;;;;17.25;16.50;;;;;21.15;57.67;100693.03;5073982;27;45746;-78
2021/09/25 11:32:57;;;;;;;;;17.25;16.25;;;;;20.97;57.92;100668.47;5073836;27;45597;-77
2021/09/25 11:38:44;;;;;;;;;17.25;16.50;;;;;21.31;57.53;100692.94;5073358;28;45640;-78
2021/09/25 11:41:16;;;;;;;;;17.75;16.50;;;;;21.36;56.96;100692.41;5073405;27;45682;-77
2021/09/25 11:43:54;;;;;;;;;16.75;15.25;;;;;21.42;57.25;100697.03;5073858;28;45657;-76
2021/09/25 11:46:20;;;;;;;;;22.50;20.00;;;;;21.47;57.32;100696.50;5073400;27;46685;-78
2021/09/25 11:48:45;;;;;;;;;16.25;14.75;;;;;21.52;57.43;100699.47;5073695;27;45617;-78
2021/09/25 11:51:10;;;;;;;;;16.50;15.50;;;;;21.59;57.18;100689.75;5075464;28;45658;-78
2021/09/25 11:53:36;;;;;;;;;17.00;15.75;;;;;21.67;56.81;100695.00;5075483;27;45731;-78
2021/09/25 11:56:02;;;;;;;;;16.50;15.25;;;;;21.71;57.32;100693.63;5077774;27;45826;-76
2021/09/25 11:58:27;;;;;;;;;17.75;17.00;;;;;21.70;57.00;100674.13;5076329;28;46419;-80
2021/09/25 12:00:55;;;;;;;;;14.75;14.00;;;;;21.80;56.78;100675.75;5074123;27;45664;-79
2021/09/25 12:03:23;;;;;;;;;16.75;13.25;;;;;21.87;56.69;100669.50;5074542;27;45515;-79
2021/09/25 12:09:10;;;;;;;;;17.25;15.25;;;;;21.98;56.41;100666.44;5077291;28;46109;-77
2021/09/25 12:11:39;;;;;;;;;16.75;15.50;;;;;22.00;56.75;100656.41;5077580;27;45782;-77
2021/09/25 12:14:05;;;;;;;;;18.25;16.75;;;;;22.07;56.48;100659.19;5077326;27;45548;-77
2021/09/25 12:16:30;;;;;;;;;18.50;17.00;;;;;22.10;56.38;100648.97;5077263;27;46768;-78
2021/09/25 12:18:56;;;;;;;;;21.00;19.25;;;;;22.15;56.40;100643.06;5077384;27;45792;-78
2021/09/25 12:21:24;;;;;;;;;42.25;35.50;;;;;22.21;56.35;100637.00;5077220;27;45655;-79
2021/09/25 12:23:52;;;;;;;;;20.25;19.00;;;;;22.25;55.87;100635.63;5077266;27;45702;-79